Dayton, OH (45402)

1:48 AM EDT on September 17, 2014 (GMT -0400)
Sinclair Dayton Campus | Change Station
CLOSE
Current Station
Personal Weather Station
Location: Dayton, OH
Elevation: 780 ft
Nearby Weather Stations

Elev 780 ft 39.76 °N, 84.20 °W | Updated 1 second ago

Clear
Clear
51.5 °F
Feels Like 51.5 °F
N
0.0
Wind Variable Wind from NW
Gusts 0.0 mph

Today
High -- | Low -- °F
--% Chance of Precip.
Yesterday
High -- | Low -- °F
Precip. -- in
7:19 AM 7:42 PM
Last Quarter, 39% visible
Pressure 30.10 in
Visibility 4.0 miles
Clouds Clear
Dew Point 49 °F
Humidity 91%
Rainfall 0.00 in
Snow Depth Not available.
UV 0.0 out of 12
Pollen 5.80 out of 12
PM2.5 Good
Flu Activity Not available.
SPECI KFFO 170538Z 00000KT 4SM R05L/5500FT BR CLR 09/09 A3010 RMK AO2A VIS 1/2 RWY23R

More Conditions Fewer Conditions

Pressure 30.10 in
Visibility 4.0 miles
Clouds Clear
Dew Point 49 °F
Humidity 91%
Rainfall 0.00 in
Snow Depth Not available.
UV 0.0 out of 12
Pollen 5.80 out of 12
PM2.5 Good
Flu Activity Not available.
SPECI KFFO 170538Z 00000KT 4SM R05L/5500FT BR CLR 09/09 A3010 RMK AO2A VIS 1/2 RWY23R

More Conditions Fewer Conditions

10-Day Weather Forecast

Almanac

Astronomy

Sep. 17, 2014 Rise Set
Actual Time 7:19 AM EDT 7:42 PM EDT
Civil Twilight 6:52 AM EDT 8:09 PM EDT
Nautical Twilight 6:20 AM EDT 8:40 PM EDT
Astronomical Twilight 5:48 AM EDT 9:13 PM EDT
Moon 1:19 AM EDT 3:50 PM EDT
Length of Visible Light 13h 16m
Length of Day
12h 22m
Tomorrow will be 2m 34s shorter.
Last Quarter, 39% of the Moon is Illuminated
Today
Last Quarter
Sep 24
New
Oct 1
First Quarter
Oct 8
Full
Oct 15
Last Quarter

Today's Extremes

State Highs State Lows

Community

WunderPhotos

Upload Photos

1,753,968 photos uploaded!

Nearby

Air Quality

  Air Quality AQ Index Pollutant
Yesterday Good
PM2.5
Yesterday Good
OZONE
Current Good
PM2.5
Wednesday Good
OZONE
Wednesday Good
PM2.5
Thursday Good
OZONE
Thursday Good
PM2.5
Friday Good
PM2.5
Friday Good
OZONE
Saturday Moderate
PM2.5
Saturday Good
OZONE

Snow Depth

Station Depth Elevation
No new snow has been reported.

Earthquake Activity

City Distance Mag. Time & Date
No recent earthquake activity has been reported nearby.
Minimum magnitude displayed is 2.5.

Coastal Water Temperatures

Place Temperature
No Stations Reporting

Nearby Weather Stations